sensor_id;sensor_type;location;lat;lon;timestamp;temperature;humidity
77100;SHT31;66602;48.922;2.414;2023-06-14T00:01:35;17.52;64.86
77100;SHT31;66602;48.922;2.414;2023-06-14T00:04:01;17.55;64.92
77100;SHT31;66602;48.922;2.414;2023-06-14T00:06:28;17.46;65.77
77100;SHT31;66602;48.922;2.414;2023-06-14T00:08:54;17.49;65.48
77100;SHT31;66602;48.922;2.414;2023-06-14T00:11:20;17.45;65.53
77100;SHT31;66602;48.922;2.414;2023-06-14T00:13:46;17.36;65.93
77100;SHT31;66602;48.922;2.414;2023-06-14T00:16:12;17.32;65.70
77100;SHT31;66602;48.922;2.414;2023-06-14T00:18:37;17.27;65.93
77100;SHT31;66602;48.922;2.414;2023-06-14T00:21:04;17.31;66.22
77100;SHT31;66602;48.922;2.414;2023-06-14T00:23:30;17.24;66.48
77100;SHT31;66602;48.922;2.414;2023-06-14T00:25:55;17.19;66.30
77100;SHT31;66602;48.922;2.414;2023-06-14T00:28:21;17.08;67.10
77100;SHT31;66602;48.922;2.414;2023-06-14T00:30:46;16.97;67.53
77100;SHT31;66602;48.922;2.414;2023-06-14T00:33:12;16.90;67.50
77100;SHT31;66602;48.922;2.414;2023-06-14T00:35:38;16.90;67.60
77100;SHT31;66602;48.922;2.414;2023-06-14T00:38:03;16.85;67.65
77100;SHT31;66602;48.922;2.414;2023-06-14T00:40:29;16.81;67.97
77100;SHT31;66602;48.922;2.414;2023-06-14T00:42:54;16.74;68.47
77100;SHT31;66602;48.922;2.414;2023-06-14T00:45:20;16.63;68.75
77100;SHT31;66602;48.922;2.414;2023-06-14T00:47:46;16.63;68.67
77100;SHT31;66602;48.922;2.414;2023-06-14T00:50:13;16.63;68.47
77100;SHT31;66602;48.922;2.414;2023-06-14T00:52:39;16.59;68.65
77100;SHT31;66602;48.922;2.414;2023-06-14T00:55:05;16.61;69.10
77100;SHT31;66602;48.922;2.414;2023-06-14T00:57:31;16.66;68.74
77100;SHT31;66602;48.922;2.414;2023-06-14T00:59:57;16.69;68.52
77100;SHT31;66602;48.922;2.414;2023-06-14T01:02:23;16.70;68.66
77100;SHT31;66602;48.922;2.414;2023-06-14T01:04:49;16.64;68.75
77100;SHT31;66602;48.922;2.414;2023-06-14T01:10:15;16.50;69.64
77100;SHT31;66602;48.922;2.414;2023-06-14T01:15:23;16.29;70.23
77100;SHT31;66602;48.922;2.414;2023-06-14T01:17:50;16.20;70.39
77100;SHT31;66602;48.922;2.414;2023-06-14T01:20:18;16.16;70.63
77100;SHT31;66602;48.922;2.414;2023-06-14T01:22:52;16.25;70.73
77100;SHT31;66602;48.922;2.414;2023-06-14T01:25:22;16.26;70.29
77100;SHT31;66602;48.922;2.414;2023-06-14T01:28:02;16.26;70.44
77100;SHT31;66602;48.922;2.414;2023-06-14T01:30:30;16.25;70.25
77100;SHT31;66602;48.922;2.414;2023-06-14T01:32:56;16.20;70.59
77100;SHT31;66602;48.922;2.414;2023-06-14T01:35:23;16.20;70.76
77100;SHT31;66602;48.922;2.414;2023-06-14T01:37:49;16.18;70.80
77100;SHT31;66602;48.922;2.414;2023-06-14T01:40:16;16.10;70.84
77100;SHT31;66602;48.922;2.414;2023-06-14T01:42:43;15.99;71.26
77100;SHT31;66602;48.922;2.414;2023-06-14T01:45:11;15.99;71.03
77100;SHT31;66602;48.922;2.414;2023-06-14T01:47:37;15.91;71.54
77100;SHT31;66602;48.922;2.414;2023-06-14T01:50:03;15.85;71.85
77100;SHT31;66602;48.922;2.414;2023-06-14T01:52:29;15.88;71.55
77100;SHT31;66602;48.922;2.414;2023-06-14T01:54:54;15.91;71.36
77100;SHT31;66602;48.922;2.414;2023-06-14T01:57:20;15.89;71.48
77100;SHT31;66602;48.922;2.414;2023-06-14T01:59:46;15.87;71.58
77100;SHT31;66602;48.922;2.414;2023-06-14T02:02:16;15.84;71.61
77100;SHT31;66602;48.922;2.414;2023-06-14T02:04:41;15.81;72.09
77100;SHT31;66602;48.922;2.414;2023-06-14T02:07:07;15.75;71.91
77100;SHT31;66602;48.922;2.414;2023-06-14T02:09:33;15.68;72.47
77100;SHT31;66602;48.922;2.414;2023-06-14T02:11:59;15.62;72.72
77100;SHT31;66602;48.922;2.414;2023-06-14T02:14:24;15.61;72.70
77100;SHT31;66602;48.922;2.414;2023-06-14T02:16:51;15.53;72.80
77100;SHT31;66602;48.922;2.414;2023-06-14T02:19:19;15.53;72.86
77100;SHT31;66602;48.922;2.414;2023-06-14T02:21:45;15.54;72.90
77100;SHT31;66602;48.922;2.414;2023-06-14T02:24:10;15.51;72.95
77100;SHT31;66602;48.922;2.414;2023-06-14T02:26:37;15.50;73.22
77100;SHT31;66602;48.922;2.414;2023-06-14T02:29:04;15.41;73.51
77100;SHT31;66602;48.922;2.414;2023-06-14T02:31:31;15.39;73.46
77100;SHT31;66602;48.922;2.414;2023-06-14T02:33:57;15.24;74.39
77100;SHT31;66602;48.922;2.414;2023-06-14T02:36:22;15.14;74.78
77100;SHT31;66602;48.922;2.414;2023-06-14T02:38:48;15.23;74.59
77100;SHT31;66602;48.922;2.414;2023-06-14T02:41:13;15.27;74.17
77100;SHT31;66602;48.922;2.414;2023-06-14T02:43:38;15.29;74.24
77100;SHT31;66602;48.922;2.414;2023-06-14T02:46:04;15.30;74.30
77100;SHT31;66602;48.922;2.414;2023-06-14T02:48:30;15.30;74.33
77100;SHT31;66602;48.922;2.414;2023-06-14T02:50:55;15.22;74.65
77100;SHT31;66602;48.922;2.414;2023-06-14T02:53:22;15.19;74.81
77100;SHT31;66602;48.922;2.414;2023-06-14T02:55:47;15.16;74.96
77100;SHT31;66602;48.922;2.414;2023-06-14T02:58:14;15.16;75.10
77100;SHT31;66602;48.922;2.414;2023-06-14T03:00:39;15.09;75.53
77100;SHT31;66602;48.922;2.414;2023-06-14T03:03:07;15.04;75.59
77100;SHT31;66602;48.922;2.414;2023-06-14T03:05:43;15.04;75.49
77100;SHT31;66602;48.922;2.414;2023-06-14T03:08:11;14.99;75.65
77100;SHT31;66602;48.922;2.414;2023-06-14T03:10:42;14.96;75.89
77100;SHT31;66602;48.922;2.414;2023-06-14T03:13:08;14.93;76.24
77100;SHT31;66602;48.922;2.414;2023-06-14T03:15:36;14.98;76.03
77100;SHT31;66602;48.922;2.414;2023-06-14T03:18:01;15.02;75.85
77100;SHT31;66602;48.922;2.414;2023-06-14T03:20:27;15.03;75.73
77100;SHT31;66602;48.922;2.414;2023-06-14T03:22:55;15.04;76.00
77100;SHT31;66602;48.922;2.414;2023-06-14T03:25:20;15.04;75.94
77100;SHT31;66602;48.922;2.414;2023-06-14T03:27:47;14.96;76.34
77100;SHT31;66602;48.922;2.414;2023-06-14T03:30:13;14.95;76.16
77100;SHT31;66602;48.922;2.414;2023-06-14T03:32:38;14.92;76.10
77100;SHT31;66602;48.922;2.414;2023-06-14T03:35:04;14.83;76.48
77100;SHT31;66602;48.922;2.414;2023-06-14T03:37:30;14.65;77.38
77100;SHT31;66602;48.922;2.414;2023-06-14T03:39:56;14.67;77.59
77100;SHT31;66602;48.922;2.414;2023-06-14T03:42:21;14.64;77.31
77100;SHT31;66602;48.922;2.414;2023-06-14T03:44:47;14.68;77.33
77100;SHT31;66602;48.922;2.414;2023-06-14T03:47:12;14.69;77.25
77100;SHT31;66602;48.922;2.414;2023-06-14T03:49:37;14.71;77.32
77100;SHT31;66602;48.922;2.414;2023-06-14T03:52:03;14.65;77.63
77100;SHT31;66602;48.922;2.414;2023-06-14T03:54:29;14.59;77.62
77100;SHT31;66602;48.922;2.414;2023-06-14T03:56:57;14.58;77.77
77100;SHT31;66602;48.922;2.414;2023-06-14T03:59:23;14.48;78.15
77100;SHT31;66602;48.922;2.414;2023-06-14T04:01:49;14.48;78.20
77100;SHT31;66602;48.922;2.414;2023-06-14T04:04:14;14.48;78.11
77100;SHT31;66602;48.922;2.414;2023-06-14T04:06:41;14.48;78.07
77100;SHT31;66602;48.922;2.414;2023-06-14T04:09:08;14.48;78.12
77100;SHT31;66602;48.922;2.414;2023-06-14T04:11:33;14.46;78.32
77100;SHT31;66602;48.922;2.414;2023-06-14T04:13:59;14.51;78.46
77100;SHT31;66602;48.922;2.414;2023-06-14T04:16:25;14.54;78.29
77100;SHT31;66602;48.922;2.414;2023-06-14T04:18:50;14.59;78.08
77100;SHT31;66602;48.922;2.414;2023-06-14T04:21:18;14.61;77.88
77100;SHT31;66602;48.922;2.414;2023-06-14T04:23:43;14.64;77.97
77100;SHT31;66602;48.922;2.414;2023-06-14T04:26:09;14.61;78.11
77100;SHT31;66602;48.922;2.414;2023-06-14T04:28:35;14.65;77.94
77100;SHT31;66602;48.922;2.414;2023-06-14T04:31:06;14.65;78.19
77100;SHT31;66602;48.922;2.414;2023-06-14T04:33:37;14.62;78.56
77100;SHT31;66602;48.922;2.414;2023-06-14T04:36:10;14.62;78.76
77100;SHT31;66602;48.922;2.414;2023-06-14T04:38:37;14.71;78.12
77100;SHT31;66602;48.922;2.414;2023-06-14T04:41:03;14.75;78.01
77100;SHT31;66602;48.922;2.414;2023-06-14T04:43:28;14.78;78.13
77100;SHT31;66602;48.922;2.414;2023-06-14T04:45:54;14.89;77.62
77100;SHT31;66602;48.922;2.414;2023-06-14T04:48:22;14.95;77.05
77100;SHT31;66602;48.922;2.414;2023-06-14T04:50:48;14.93;77.34
77100;SHT31;66602;48.922;2.414;2023-06-14T04:53:18;15.00;77.08
77100;SHT31;66602;48.922;2.414;2023-06-14T04:55:46;15.11;76.71
77100;SHT31;66602;48.922;2.414;2023-06-14T04:58:12;15.14;76.78
77100;SHT31;66602;48.922;2.414;2023-06-14T05:00:38;15.19;76.44
77100;SHT31;66602;48.922;2.414;2023-06-14T05:03:04;15.26;75.78
77100;SHT31;66602;48.922;2.414;2023-06-14T05:05:31;15.37;75.57
77100;SHT31;66602;48.922;2.414;2023-06-14T05:07:57;15.50;75.27
77100;SHT31;66602;48.922;2.414;2023-06-14T05:10:24;15.57;75.57
77100;SHT31;66602;48.922;2.414;2023-06-14T05:12:49;15.65;74.76
77100;SHT31;66602;48.922;2.414;2023-06-14T05:15:15;15.72;74.96
77100;SHT31;66602;48.922;2.414;2023-06-14T05:17:41;15.87;74.09
77100;SHT31;66602;48.922;2.414;2023-06-14T05:20:07;15.91;74.13
77100;SHT31;66602;48.922;2.414;2023-06-14T05:22:35;15.88;74.12
77100;SHT31;66602;48.922;2.414;2023-06-14T05:25:01;15.94;73.62
77100;SHT31;66602;48.922;2.414;2023-06-14T05:27:27;15.95;73.48
77100;SHT31;66602;48.922;2.414;2023-06-14T05:29:53;15.99;73.81
77100;SHT31;66602;48.922;2.414;2023-06-14T05:32:23;16.08;74.03
77100;SHT31;66602;48.922;2.414;2023-06-14T05:34:49;16.16;73.80
77100;SHT31;66602;48.922;2.414;2023-06-14T05:37:15;16.18;73.29
77100;SHT31;66602;48.922;2.414;2023-06-14T05:39:41;16.25;73.98
77100;SHT31;66602;48.922;2.414;2023-06-14T05:42:06;16.25;73.22
77100;SHT31;66602;48.922;2.414;2023-06-14T05:44:32;16.33;72.13
77100;SHT31;66602;48.922;2.414;2023-06-14T05:46:57;16.46;72.07
77100;SHT31;66602;48.922;2.414;2023-06-14T05:49:23;16.64;72.10
77100;SHT31;66602;48.922;2.414;2023-06-14T05:51:48;16.70;71.85
77100;SHT31;66602;48.922;2.414;2023-06-14T05:54:14;16.73;71.69
77100;SHT31;66602;48.922;2.414;2023-06-14T05:56:39;16.78;71.51
77100;SHT31;66602;48.922;2.414;2023-06-14T05:59:05;16.90;70.94
77100;SHT31;66602;48.922;2.414;2023-06-14T06:01:31;16.92;70.79
77100;SHT31;66602;48.922;2.414;2023-06-14T06:03:58;17.06;70.15
77100;SHT31;66602;48.922;2.414;2023-06-14T06:06:24;17.11;70.28
77100;SHT31;66602;48.922;2.414;2023-06-14T06:08:50;17.18;70.17
77100;SHT31;66602;48.922;2.414;2023-06-14T06:11:15;17.22;69.35
77100;SHT31;66602;48.922;2.414;2023-06-14T06:13:41;17.46;68.12
77100;SHT31;66602;48.922;2.414;2023-06-14T06:16:07;17.56;68.95
77100;SHT31;66602;48.922;2.414;2023-06-14T06:18:32;17.59;69.03
77100;SHT31;66602;48.922;2.414;2023-06-14T06:20:58;17.63;69.32
77100;SHT31;66602;48.922;2.414;2023-06-14T06:23:23;17.69;68.89
77100;SHT31;66602;48.922;2.414;2023-06-14T06:25:49;17.83;68.29
77100;SHT31;66602;48.922;2.414;2023-06-14T06:28:14;17.97;67.72
77100;SHT31;66602;48.922;2.414;2023-06-14T06:30:40;18.14;67.36
77100;SHT31;66602;48.922;2.414;2023-06-14T06:33:05;18.36;65.92
77100;SHT31;66602;48.922;2.414;2023-06-14T06:35:31;18.49;66.75
77100;SHT31;66602;48.922;2.414;2023-06-14T06:37:58;18.64;65.15
77100;SHT31;66602;48.922;2.414;2023-06-14T06:40:24;18.72;64.85
77100;SHT31;66602;48.922;2.414;2023-06-14T06:42:49;18.85;64.41
77100;SHT31;66602;48.922;2.414;2023-06-14T06:45:15;18.99;65.57
77100;SHT31;66602;48.922;2.414;2023-06-14T06:47:40;19.16;62.52
77100;SHT31;66602;48.922;2.414;2023-06-14T06:50:07;19.43;61.33
77100;SHT31;66602;48.922;2.414;2023-06-14T06:52:33;19.68;61.09
77100;SHT31;66602;48.922;2.414;2023-06-14T06:54:58;19.88;63.45
77100;SHT31;66602;48.922;2.414;2023-06-14T06:57:24;20.56;62.22
77100;SHT31;66602;48.922;2.414;2023-06-14T06:59:50;22.16;58.51
77100;SHT31;66602;48.922;2.414;2023-06-14T07:02:16;23.19;53.57
77100;SHT31;66602;48.922;2.414;2023-06-14T07:04:41;23.78;51.23
77100;SHT31;66602;48.922;2.414;2023-06-14T07:07:07;24.25;50.54
77100;SHT31;66602;48.922;2.414;2023-06-14T07:09:34;24.93;49.24
77100;SHT31;66602;48.922;2.414;2023-06-14T07:12:00;26.48;44.63
77100;SHT31;66602;48.922;2.414;2023-06-14T07:14:25;28.54;40.69
77100;SHT31;66602;48.922;2.414;2023-06-14T07:16:51;30.32;36.75
77100;SHT31;66602;48.922;2.414;2023-06-14T07:19:16;31.90;31.76
77100;SHT31;66602;48.922;2.414;2023-06-14T07:21:42;32.77;31.44
77100;SHT31;66602;48.922;2.414;2023-06-14T07:24:08;33.43;31.67
77100;SHT31;66602;48.922;2.414;2023-06-14T07:26:34;34.28;31.83
77100;SHT31;66602;48.922;2.414;2023-06-14T07:29:00;34.59;30.14
77100;SHT31;66602;48.922;2.414;2023-06-14T07:31:26;35.09;28.74
77100;SHT31;66602;48.922;2.414;2023-06-14T07:33:55;35.70;29.80
77100;SHT31;66602;48.922;2.414;2023-06-14T07:36:21;35.63;27.11
77100;SHT31;66602;48.922;2.414;2023-06-14T07:38:47;35.88;26.56
77100;SHT31;66602;48.922;2.414;2023-06-14T07:41:12;35.94;31.05
77100;SHT31;66602;48.922;2.414;2023-06-14T07:43:38;36.52;29.09
77100;SHT31;66602;48.922;2.414;2023-06-14T07:46:04;37.08;25.85
77100;SHT31;66602;48.922;2.414;2023-06-14T07:48:29;37.51;26.81
77100;SHT31;66602;48.922;2.414;2023-06-14T07:50:55;37.54;26.36
77100;SHT31;66602;48.922;2.414;2023-06-14T07:53:20;37.49;27.30
77100;SHT31;66602;48.922;2.414;2023-06-14T07:55:46;37.76;26.37
77100;SHT31;66602;48.922;2.414;2023-06-14T07:58:13;38.08;25.42
77100;SHT31;66602;48.922;2.414;2023-06-14T08:00:38;38.54;27.57
77100;SHT31;66602;48.922;2.414;2023-06-14T08:03:06;38.97;23.78
77100;SHT31;66602;48.922;2.414;2023-06-14T08:05:33;39.15;23.45
77100;SHT31;66602;48.922;2.414;2023-06-14T08:07:58;39.17;24.65
77100;SHT31;66602;48.922;2.414;2023-06-14T08:10:23;39.21;22.86
77100;SHT31;66602;48.922;2.414;2023-06-14T08:12:49;39.29;24.72
77100;SHT31;66602;48.922;2.414;2023-06-14T08:15:17;39.59;22.40
77100;SHT31;66602;48.922;2.414;2023-06-14T08:17:44;39.41;19.39
77100;SHT31;66602;48.922;2.414;2023-06-14T08:20:10;39.66;20.46
77100;SHT31;66602;48.922;2.414;2023-06-14T08:22:36;39.35;21.57
77100;SHT31;66602;48.922;2.414;2023-06-14T08:25:02;39.08;21.54
77100;SHT31;66602;48.922;2.414;2023-06-14T08:27:29;39.13;22.48
77100;SHT31;66602;48.922;2.414;2023-06-14T08:29:55;39.59;20.88
77100;SHT31;66602;48.922;2.414;2023-06-14T08:32:21;39.89;20.18
77100;SHT31;66602;48.922;2.414;2023-06-14T08:34:46;40.31;18.83
77100;SHT31;66602;48.922;2.414;2023-06-14T08:37:12;40.61;19.99
77100;SHT31;66602;48.922;2.414;2023-06-14T08:39:37;39.93;18.90
77100;SHT31;66602;48.922;2.414;2023-06-14T08:42:04;39.63;21.70
77100;SHT31;66602;48.922;2.414;2023-06-14T08:44:31;39.76;25.00
77100;SHT31;66602;48.922;2.414;2023-06-14T08:46:59;40.52;20.67
77100;SHT31;66602;48.922;2.414;2023-06-14T08:49:26;40.45;20.40
77100;SHT31;66602;48.922;2.414;2023-06-14T08:51:58;40.67;19.89
77100;SHT31;66602;48.922;2.414;2023-06-14T08:54:33;40.55;19.61
77100;SHT31;66602;48.922;2.414;2023-06-14T08:57:02;40.60;18.35
77100;SHT31;66602;48.922;2.414;2023-06-14T08:59:32;40.39;23.92
77100;SHT31;66602;48.922;2.414;2023-06-14T09:02:04;41.15;19.92
77100;SHT31;66602;48.922;2.414;2023-06-14T09:04:31;41.80;20.29
77100;SHT31;66602;48.922;2.414;2023-06-14T09:06:57;41.84;16.79
77100;SHT31;66602;48.922;2.414;2023-06-14T09:09:24;41.57;16.25
77100;SHT31;66602;48.922;2.414;2023-06-14T09:11:51;42.04;18.45
77100;SHT31;66602;48.922;2.414;2023-06-14T09:14:19;41.77;19.49
77100;SHT31;66602;48.922;2.414;2023-06-14T09:16:45;42.17;17.39
77100;SHT31;66602;48.922;2.414;2023-06-14T09:19:21;42.68;16.71
77100;SHT31;66602;48.922;2.414;2023-06-14T09:21:48;41.77;18.49
77100;SHT31;66602;48.922;2.414;2023-06-14T09:24:14;41.40;16.32
77100;SHT31;66602;48.922;2.414;2023-06-14T09:26:40;41.28;15.01
77100;SHT31;66602;48.922;2.414;2023-06-14T09:29:06;41.66;18.14
77100;SHT31;66602;48.922;2.414;2023-06-14T09:31:31;42.00;15.11
77100;SHT31;66602;48.922;2.414;2023-06-14T09:33:58;42.25;16.64
77100;SHT31;66602;48.922;2.414;2023-06-14T09:36:26;41.90;14.34
77100;SHT31;66602;48.922;2.414;2023-06-14T09:38:56;41.03;15.26
77100;SHT31;66602;48.922;2.414;2023-06-14T09:41:35;40.99;19.79
77100;SHT31;66602;48.922;2.414;2023-06-14T09:44:03;41.40;16.65
77100;SHT31;66602;48.922;2.414;2023-06-14T09:46:30;41.42;16.79
77100;SHT31;66602;48.922;2.414;2023-06-14T09:48:57;41.57;15.58
77100;SHT31;66602;48.922;2.414;2023-06-14T09:51:23;41.88;16.76
77100;SHT31;66602;48.922;2.414;2023-06-14T09:53:49;41.72;14.84
77100;SHT31;66602;48.922;2.414;2023-06-14T09:56:31;41.52;14.90
77100;SHT31;66602;48.922;2.414;2023-06-14T09:58:58;41.83;16.12
77100;SHT31;66602;48.922;2.414;2023-06-14T10:01:25;42.03;14.97
77100;SHT31;66602;48.922;2.414;2023-06-14T10:03:57;41.90;15.81
77100;SHT31;66602;48.922;2.414;2023-06-14T10:06:26;41.94;18.24
77100;SHT31;66602;48.922;2.414;2023-06-14T10:08:59;42.00;16.28
77100;SHT31;66602;48.922;2.414;2023-06-14T10:11:25;41.88;15.83
77100;SHT31;66602;48.922;2.414;2023-06-14T10:13:52;41.69;15.17
77100;SHT31;66602;48.922;2.414;2023-06-14T10:17:13;41.57;18.70
77100;SHT31;66602;48.922;2.414;2023-06-14T10:19:24;41.53;16.18
77100;SHT31;66602;48.922;2.414;2023-06-14T10:24:42;42.01;16.04
77100;SHT31;66602;48.922;2.414;2023-06-14T10:27:08;42.32;15.31
77100;SHT31;66602;48.922;2.414;2023-06-14T10:32:23;41.61;19.18
77100;SHT31;66602;48.922;2.414;2023-06-14T10:37:24;41.69;15.32
77100;SHT31;66602;48.922;2.414;2023-06-14T10:39:50;41.77;15.29
77100;SHT31;66602;48.922;2.414;2023-06-14T10:42:16;41.87;15.49
77100;SHT31;66602;48.922;2.414;2023-06-14T10:44:51;41.87;15.49
77100;SHT31;66602;48.922;2.414;2023-06-14T10:47:36;41.61;16.26
77100;SHT31;66602;48.922;2.414;2023-06-14T10:52:38;41.47;16.38
77100;SHT31;66602;48.922;2.414;2023-06-14T10:55:09;41.35;17.28
77100;SHT31;66602;48.922;2.414;2023-06-14T10:57:37;41.66;18.50
77100;SHT31;66602;48.922;2.414;2023-06-14T11:00:05;42.20;15.91
77100;SHT31;66602;48.922;2.414;2023-06-14T11:05:08;41.74;15.93
77100;SHT31;66602;48.922;2.414;2023-06-14T11:10:40;41.19;16.93
77100;SHT31;66602;48.922;2.414;2023-06-14T11:13:09;41.11;18.97
77100;SHT31;66602;48.922;2.414;2023-06-14T11:15:36;40.85;15.29
77100;SHT31;66602;48.922;2.414;2023-06-14T11:18:06;40.24;15.97
77100;SHT31;66602;48.922;2.414;2023-06-14T11:20:33;40.13;14.85
77100;SHT31;66602;48.922;2.414;2023-06-14T11:22:59;39.92;15.71
77100;SHT31;66602;48.922;2.414;2023-06-14T11:25:25;39.88;16.69
77100;SHT31;66602;48.922;2.414;2023-06-14T11:27:53;40.48;18.80
77100;SHT31;66602;48.922;2.414;2023-06-14T11:30:18;41.18;16.87
77100;SHT31;66602;48.922;2.414;2023-06-14T11:32:48;41.05;18.40
77100;SHT31;66602;48.922;2.414;2023-06-14T11:35:13;40.92;16.85
77100;SHT31;66602;48.922;2.414;2023-06-14T11:37:39;40.77;17.50
77100;SHT31;66602;48.922;2.414;2023-06-14T11:40:07;40.51;18.19
77100;SHT31;66602;48.922;2.414;2023-06-14T11:42:35;41.02;20.15
77100;SHT31;66602;48.922;2.414;2023-06-14T11:45:03;41.32;15.99
77100;SHT31;66602;48.922;2.414;2023-06-14T11:47:33;40.84;16.04
77100;SHT31;66602;48.922;2.414;2023-06-14T11:50:00;41.21;16.66
77100;SHT31;66602;48.922;2.414;2023-06-14T11:52:25;40.52;16.92
77100;SHT31;66602;48.922;2.414;2023-06-14T11:54:51;40.03;18.90
77100;SHT31;66602;48.922;2.414;2023-06-14T11:57:20;40.27;19.12
77100;SHT31;66602;48.922;2.414;2023-06-14T11:59:46;40.06;17.59
77100;SHT31;66602;48.922;2.414;2023-06-14T12:02:15;39.69;18.68
77100;SHT31;66602;48.922;2.414;2023-06-14T12:04:42;39.51;18.69
77100;SHT31;66602;48.922;2.414;2023-06-14T12:07:14;39.38;18.70
77100;SHT31;66602;48.922;2.414;2023-06-14T12:12:25;39.45;18.48
77100;SHT31;66602;48.922;2.414;2023-06-14T12:14:51;39.46;17.83
77100;SHT31;66602;48.922;2.414;2023-06-14T12:17:18;39.93;17.97
77100;SHT31;66602;48.922;2.414;2023-06-14T12:19:45;40.21;20.35
77100;SHT31;66602;48.922;2.414;2023-06-14T12:22:11;40.52;18.58
77100;SHT31;66602;48.922;2.414;2023-06-14T12:24:37;40.17;17.44
77100;SHT31;66602;48.922;2.414;2023-06-14T12:27:04;39.72;20.67
77100;SHT31;66602;48.922;2.414;2023-06-14T12:29:31;39.76;18.20
77100;SHT31;66602;48.922;2.414;2023-06-14T12:31:57;39.73;20.33
77100;SHT31;66602;48.922;2.414;2023-06-14T12:34:26;39.63;20.17
77100;SHT31;66602;48.922;2.414;2023-06-14T12:36:53;38.12;19.46
77100;SHT31;66602;48.922;2.414;2023-06-14T12:39:19;38.50;20.06
77100;SHT31;66602;48.922;2.414;2023-06-14T12:41:45;38.71;22.18
77100;SHT31;66602;48.922;2.414;2023-06-14T12:44:11;38.93;18.93
77100;SHT31;66602;48.922;2.414;2023-06-14T12:46:37;38.66;20.12
77100;SHT31;66602;48.922;2.414;2023-06-14T12:49:05;38.59;20.67
77100;SHT31;66602;48.922;2.414;2023-06-14T12:51:32;38.66;20.98
77100;SHT31;66602;48.922;2.414;2023-06-14T12:53:57;38.74;19.63
77100;SHT31;66602;48.922;2.414;2023-06-14T12:56:23;38.70;20.22
77100;SHT31;66602;48.922;2.414;2023-06-14T12:58:48;38.40;18.33
77100;SHT31;66602;48.922;2.414;2023-06-14T13:01:13;38.15;19.82
77100;SHT31;66602;48.922;2.414;2023-06-14T13:03:39;38.19;21.09
77100;SHT31;66602;48.922;2.414;2023-06-14T13:06:05;37.82;18.71
77100;SHT31;66602;48.922;2.414;2023-06-14T13:08:30;37.39;20.83
77100;SHT31;66602;48.922;2.414;2023-06-14T13:10:56;37.24;19.48
77100;SHT31;66602;48.922;2.414;2023-06-14T13:13:23;37.13;20.22
77100;SHT31;66602;48.922;2.414;2023-06-14T13:15:48;37.45;19.70
77100;SHT31;66602;48.922;2.414;2023-06-14T13:18:15;37.84;19.12
77100;SHT31;66602;48.922;2.414;2023-06-14T13:20:41;38.16;21.08
77100;SHT31;66602;48.922;2.414;2023-06-14T13:23:07;38.73;17.85
77100;SHT31;66602;48.922;2.414;2023-06-14T13:25:37;38.68;17.10
77100;SHT31;66602;48.922;2.414;2023-06-14T13:28:03;38.56;17.69
77100;SHT31;66602;48.922;2.414;2023-06-14T13:30:29;38.63;18.88
77100;SHT31;66602;48.922;2.414;2023-06-14T13:32:58;37.39;20.00
77100;SHT31;66602;48.922;2.414;2023-06-14T13:35:24;37.03;21.42
77100;SHT31;66602;48.922;2.414;2023-06-14T13:37:50;37.41;22.65
77100;SHT31;66602;48.922;2.414;2023-06-14T13:40:17;37.16;19.30
77100;SHT31;66602;48.922;2.414;2023-06-14T13:42:42;36.82;20.39
77100;SHT31;66602;48.922;2.414;2023-06-14T13:45:09;36.91;19.92
77100;SHT31;66602;48.922;2.414;2023-06-14T13:47:35;37.58;20.89
77100;SHT31;66602;48.922;2.414;2023-06-14T13:50:02;37.58;18.34
77100;SHT31;66602;48.922;2.414;2023-06-14T13:52:28;37.71;19.40
77100;SHT31;66602;48.922;2.414;2023-06-14T13:54:53;37.51;19.19
77100;SHT31;66602;48.922;2.414;2023-06-14T13:57:19;37.10;21.10
77100;SHT31;66602;48.922;2.414;2023-06-14T13:59:45;36.94;20.60
77100;SHT31;66602;48.922;2.414;2023-06-14T14:02:11;37.00;20.40
77100;SHT31;66602;48.922;2.414;2023-06-14T14:04:37;36.82;18.88
77100;SHT31;66602;48.922;2.414;2023-06-14T14:07:03;36.75;19.29
77100;SHT31;66602;48.922;2.414;2023-06-14T14:09:29;36.49;21.83
77100;SHT31;66602;48.922;2.414;2023-06-14T14:11:55;36.38;21.47
77100;SHT31;66602;48.922;2.414;2023-06-14T14:14:21;36.52;23.72
77100;SHT31;66602;48.922;2.414;2023-06-14T14:16:49;36.86;22.77
77100;SHT31;66602;48.922;2.414;2023-06-14T14:19:17;36.89;20.31
77100;SHT31;66602;48.922;2.414;2023-06-14T14:21:47;36.66;21.73
77100;SHT31;66602;48.922;2.414;2023-06-14T14:24:12;36.63;23.42
77100;SHT31;66602;48.922;2.414;2023-06-14T14:26:47;37.07;20.61
77100;SHT31;66602;48.922;2.414;2023-06-14T14:29:15;37.03;22.76
77100;SHT31;66602;48.922;2.414;2023-06-14T14:31:40;36.90;20.09
77100;SHT31;66602;48.922;2.414;2023-06-14T14:34:06;36.89;19.21
77100;SHT31;66602;48.922;2.414;2023-06-14T14:36:31;37.17;21.60
77100;SHT31;66602;48.922;2.414;2023-06-14T14:38:58;37.76;20.96
77100;SHT31;66602;48.922;2.414;2023-06-14T14:41:24;37.81;20.43
77100;SHT31;66602;48.922;2.414;2023-06-14T14:43:49;37.85;20.34
77100;SHT31;66602;48.922;2.414;2023-06-14T14:46:16;37.84;17.64
77100;SHT31;66602;48.922;2.414;2023-06-14T14:48:42;37.84;20.38
77100;SHT31;66602;48.922;2.414;2023-06-14T14:51:07;37.79;20.29
77100;SHT31;66602;48.922;2.414;2023-06-14T14:53:33;37.24;21.04
77100;SHT31;66602;48.922;2.414;2023-06-14T14:55:58;37.00;20.35
77100;SHT31;66602;48.922;2.414;2023-06-14T14:58:24;37.28;20.16
77100;SHT31;66602;48.922;2.414;2023-06-14T15:00:50;37.33;19.65
77100;SHT31;66602;48.922;2.414;2023-06-14T15:03:16;36.84;20.55
77100;SHT31;66602;48.922;2.414;2023-06-14T15:05:42;36.49;23.31
77100;SHT31;66602;48.922;2.414;2023-06-14T15:08:08;36.28;22.13
77100;SHT31;66602;48.922;2.414;2023-06-14T15:10:40;36.39;20.93
77100;SHT31;66602;48.922;2.414;2023-06-14T15:13:09;36.25;22.41
77100;SHT31;66602;48.922;2.414;2023-06-14T15:15:35;35.97;20.13
77100;SHT31;66602;48.922;2.414;2023-06-14T15:18:01;35.98;21.87
77100;SHT31;66602;48.922;2.414;2023-06-14T15:20:26;35.81;20.76
77100;SHT31;66602;48.922;2.414;2023-06-14T15:22:53;35.60;20.84
77100;SHT31;66602;48.922;2.414;2023-06-14T15:25:21;35.53;21.14
77100;SHT31;66602;48.922;2.414;2023-06-14T15:27:46;35.63;21.06
77100;SHT31;66602;48.922;2.414;2023-06-14T15:30:12;35.65;24.19
77100;SHT31;66602;48.922;2.414;2023-06-14T15:32:38;35.57;22.53
77100;SHT31;66602;48.922;2.414;2023-06-14T15:35:03;35.30;23.78
77100;SHT31;66602;48.922;2.414;2023-06-14T15:37:29;34.93;22.93
77100;SHT31;66602;48.922;2.414;2023-06-14T15:39:55;34.45;23.02
77100;SHT31;66602;48.922;2.414;2023-06-14T15:42:20;34.23;21.91
77100;SHT31;66602;48.922;2.414;2023-06-14T15:44:46;33.93;21.91
77100;SHT31;66602;48.922;2.414;2023-06-14T15:47:13;33.43;22.89
77100;SHT31;66602;48.922;2.414;2023-06-14T15:49:38;32.78;22.72
77100;SHT31;66602;48.922;2.414;2023-06-14T15:52:04;32.13;24.71